Time;durP1;ratioP1;P1;durP2;ratioP2;P2;SDS_P1;SDS_P2;PMS_P1;PMS_P2;Temp;Humidity;BMP_temperature;BMP_pressure;BME280_temperature;BME280_humidity;BME280_pressure;Samples;Min_cycle;Max_cycle;Signal;HPM_P1;HPM_P2
2022/06/17 00:01:30;;;;;;;12.85;8.50;;;;;;;11.27;87.62;94730.89;1744551;82;21149;-50
2022/06/17 00:03:58;;;;;;;17.23;10.18;;;;;;;11.25;87.41;94723.09;1745005;81;21047;-49
2022/06/17 00:06:27;;;;;;;15.08;9.75;;;;;;;11.25;87.47;94721.72;1722299;82;21012;-50
2022/06/17 00:08:56;;;;;;;12.82;7.85;;;;;;;11.27;87.24;94717.13;1744924;82;21436;-50
2022/06/17 00:11:33;;;;;;;11.70;8.58;;;;;;;11.25;86.78;94718.19;1744795;81;21496;-48
2022/06/17 00:14:00;;;;;;;13.32;8.73;;;;;;;11.25;86.98;94717.59;1735036;82;21568;-50
2022/06/17 00:16:29;;;;;;;20.15;11.90;;;;;;;11.23;86.67;94717.27;1731553;82;20979;-48
2022/06/17 00:18:58;;;;;;;23.42;12.43;;;;;;;11.19;86.63;94706.98;1710939;82;20981;-49
2022/06/17 00:21:29;;;;;;;23.42;13.35;;;;;;;11.17;86.57;94705.30;1711272;82;21055;-48
2022/06/17 00:23:58;;;;;;;29.32;14.47;;;;;;;11.13;86.66;94708.80;1688015;85;21545;-49
2022/06/17 00:26:26;;;;;;;15.93;11.15;;;;;;;11.11;86.76;94713.99;1718212;82;21150;-50
2022/06/17 00:28:54;;;;;;;17.35;9.78;;;;;;;11.03;86.93;94709.20;1747610;82;21462;-49
2022/06/17 00:31:23;;;;;;;14.03;8.95;;;;;;;10.95;87.03;94716.95;1666437;85;21018;-49
2022/06/17 00:33:50;;;;;;;15.68;9.13;;;;;;;10.88;87.10;94712.32;1687651;85;21050;-50
2022/06/17 00:36:19;;;;;;;12.93;9.23;;;;;;;10.87;87.31;94712.95;1666180;85;20975;-49
2022/06/17 00:38:47;;;;;;;12.40;9.18;;;;;;;10.87;87.55;94712.95;1747755;82;21228;-49
2022/06/17 00:41:35;;;;;;;13.18;9.30;;;;;;;10.88;87.69;94712.32;1687848;84;21049;-48
2022/06/17 00:44:19;;;;;;;14.53;10.38;;;;;;;10.85;87.91;94707.12;1688157;85;21098;-50
2022/06/17 00:47:04;;;;;;;16.70;10.48;;;;;;;10.83;87.84;94695.77;1686611;85;21014;-49
2022/06/17 00:49:49;;;;;;;18.52;10.88;;;;;;;10.80;87.83;94702.18;1747409;82;21483;-50
2022/06/17 00:52:24;;;;;;;16.30;10.15;;;;;;;10.77;87.75;94696.20;1716707;83;21419;-49
2022/06/17 00:54:57;;;;;;;16.62;11.85;;;;;;;10.76;87.78;94705.67;1666090;85;21550;-50
2022/06/17 00:57:34;;;;;;;10.80;8.73;;;;;;;10.76;87.77;94699.42;1687890;85;21557;-48
2022/06/17 01:00:11;;;;;;;9.95;7.60;;;;;;;10.74;87.66;94708.11;1747685;82;21035;-49
2022/06/17 01:02:43;;;;;;;14.03;8.78;;;;;;;10.68;87.74;94709.76;1687708;85;21454;-49
2022/06/17 01:05:12;;;;;;;15.53;9.58;;;;;;;10.65;87.83;94705.13;1688132;85;21503;-50
2022/06/17 01:07:47;;;;;;;11.30;8.70;;;;;;;10.64;88.09;94704.97;1716369;83;21004;-49
2022/06/17 01:10:16;;;;;;;14.75;9.40;;;;;;;10.63;87.80;94700.69;1687947;84;21054;-48
2022/06/17 01:13:02;;;;;;;12.35;9.65;;;;;;;10.64;87.65;94702.22;1688580;83;21031;-54
2022/06/17 01:15:34;;;;;;;12.43;7.33;;;;;;;10.64;87.56;94693.38;1725113;81;21042;-50
2022/06/17 01:18:02;;;;;;;8.30;6.80;;;;;;;10.64;87.40;94692.59;1705756;84;21246;-50
2022/06/17 01:20:32;;;;;;;9.38;7.10;;;;;;;10.64;87.12;94690.62;1714967;83;21026;-49
2022/06/17 01:23:04;;;;;;;8.95;7.80;;;;;;;10.62;86.85;94699.15;1722983;83;20996;-49
2022/06/17 01:25:37;;;;;;;19.30;11.48;;;;;;;10.60;86.82;94693.33;1684624;85;21038;-49
2022/06/17 01:28:09;;;;;;;31.35;15.32;;;;;;;10.60;86.65;94692.73;1704960;83;20956;-47
2022/06/17 01:30:44;;;;;;;49.03;19.27;;;;;;;10.56;86.70;94683.82;1681344;85;21385;-49
2022/06/17 01:33:30;;;;;;;46.75;22.40;;;;;;;10.52;86.94;94681.81;1730240;82;20999;-48
2022/06/17 01:36:18;;;;;;;53.40;25.55;;;;;;;10.50;87.39;94684.25;1709386;83;20959;-49
2022/06/17 01:38:53;;;;;;;43.33;19.45;;;;;;;10.46;87.47;94680.08;1730010;82;20971;-49
2022/06/17 01:41:24;;;;;;;25.75;14.47;;;;;;;10.42;87.48;94682.20;1730082;83;21517;-49
2022/06/17 01:44:07;;;;;;;23.52;13.18;;;;;;;10.37;87.22;94681.41;1730340;82;21029;-49
2022/06/17 01:46:40;;;;;;;24.82;12.35;;;;;;;10.31;86.97;94688.08;1730264;82;20964;-49
2022/06/17 01:49:18;;;;;;;19.50;12.23;;;;;;;10.27;86.98;94679.78;1730050;82;21039;-49
2022/06/17 01:51:51;;;;;;;20.05;10.08;;;;;;;10.20;86.93;94675.92;1729838;83;21006;-50
2022/06/17 01:54:32;;;;;;;14.73;8.18;;;;;;;10.16;86.73;94683.53;1730392;81;21023;-49
2022/06/17 01:57:03;;;;;;;11.05;7.40;;;;;;;10.05;86.69;94674.88;1729915;83;21757;-49
2022/06/17 01:59:41;;;;;;;10.72;8.00;;;;;;;10.05;87.07;94685.27;1709402;83;20947;-48
2022/06/17 02:02:11;;;;;;;15.75;8.68;;;;;;;10.07;87.20;94674.60;1730002;82;21046;-50
2022/06/17 02:04:42;;;;;;;15.23;9.25;;;;;;;10.11;87.20;94682.70;1730298;82;22257;-49
2022/06/17 02:07:23;;;;;;;18.75;10.55;;;;;;;10.08;87.18;94678.10;1709201;83;21042;-49
2022/06/17 02:09:51;;;;;;;23.27;11.25;;;;;;;9.99;87.24;94684.88;1729862;83;21142;-49
2022/06/17 02:12:21;;;;;;;11.88;8.90;;;;;;;9.92;87.33;94676.86;1729654;82;22222;-50
2022/06/17 02:14:51;;;;;;;21.10;9.63;;;;;;;9.88;87.44;94687.20;1714777;82;21546;-51
2022/06/17 02:17:30;;;;;;;21.93;9.37;;;;;;;9.86;87.87;94674.52;1743439;81;21001;-48
2022/06/17 02:20:03;;;;;;;20.70;10.70;;;;;;;9.89;88.10;94675.00;1732824;82;21002;-49
2022/06/17 02:22:32;;;;;;;17.42;9.93;;;;;;;9.93;87.93;94675.05;1734826;82;21799;-49
2022/06/17 02:25:04;;;;;;;15.25;9.13;;;;;;;9.92;87.84;94675.48;1734861;82;20958;-49
2022/06/17 02:27:33;;;;;;;23.38;11.65;;;;;;;9.91;87.63;94676.69;1734937;82;21042;-50
2022/06/17 02:30:04;;;;;;;50.88;13.45;;;;;;;9.85;87.49;94672.39;1735238;82;21525;-49
2022/06/17 02:32:32;;;;;;;24.98;11.08;;;;;;;9.84;87.67;94678.31;1714896;82;21462;-49
2022/06/17 02:35:14;;;;;;;22.32;12.47;;;;;;;9.82;87.72;94673.25;1735319;82;21059;-48
2022/06/17 02:37:42;;;;;;;23.40;10.75;;;;;;;9.80;88.09;94673.55;1734938;82;20991;-49
2022/06/17 02:40:15;;;;;;;23.80;9.40;;;;;;;9.83;88.19;94667.92;1713928;82;20998;-49
2022/06/17 02:42:44;;;;;;;31.90;11.08;;;;;;;9.83;88.04;94665.80;1724454;82;21517;-49
2022/06/17 02:45:15;;;;;;;34.38;11.28;;;;;;;9.79;87.92;94663.78;1714371;82;21032;-49
2022/06/17 02:47:44;;;;;;;21.77;12.00;;;;;;;9.76;88.44;94663.30;1734919;82;21231;-49
2022/06/17 02:50:18;;;;;;;20.05;9.73;;;;;;;9.75;88.21;94662.52;1735138;82;21017;-52
2022/06/17 02:52:49;;;;;;;24.77;9.40;;;;;;;9.72;88.03;94655.16;1735006;82;21042;-50
2022/06/17 02:55:33;;;;;;;23.52;10.28;;;;;;;9.67;87.89;94652.20;1735448;82;21041;-50
2022/06/17 02:58:30;;;;;;;19.07;9.40;;;;;;;9.64;88.16;94653.09;1735454;82;21600;-49
2022/06/17 03:00:59;;;;;;;25.32;9.38;;;;;;;9.64;88.04;94650.35;1734805;82;21157;-49
2022/06/17 03:03:26;;;;;;;13.00;8.50;;;;;;;9.63;88.52;94652.31;1735019;82;21548;-48
2022/06/17 03:05:55;;;;;;;15.45;8.33;;;;;;;9.70;88.51;94658.18;1734922;82;21016;-50
2022/06/17 03:08:27;;;;;;;13.90;7.65;;;;;;;9.72;88.39;94652.42;1714328;82;21010;-50
2022/06/17 03:11:00;;;;;;;19.57;7.80;;;;;;;9.76;88.28;94651.69;1735424;82;21513;-49
2022/06/17 03:13:51;;;;;;;17.35;9.43;;;;;;;9.80;88.27;94650.95;1735411;82;21970;-49
2022/06/17 03:16:20;;;;;;;46.70;11.75;;;;;;;9.85;88.26;94649.03;1735248;82;20999;-50
2022/06/17 03:18:48;;;;;;;17.30;9.45;;;;;;;9.89;87.92;94648.89;1735393;82;20934;-49
2022/06/17 03:21:20;;;;;;;15.88;10.10;;;;;;;9.88;87.92;94649.52;1714290;82;20954;-50
2022/06/17 03:24:11;;;;;;;34.35;13.00;;;;;;;9.91;87.89;94646.47;1714763;82;21049;-49
2022/06/17 03:26:40;;;;;;;33.88;13.93;;;;;;;9.94;87.82;94640.86;1687743;82;21188;-49
2022/06/17 03:29:09;;;;;;;19.23;9.78;;;;;;;10.01;87.75;94637.88;1720697;82;20990;-51
2022/06/17 03:31:46;;;;;;;11.03;7.55;;;;;;;10.04;87.77;94641.73;1735499;82;21032;-48
2022/06/17 03:34:34;;;;;;;10.93;7.58;;;;;;;10.07;87.68;94644.37;1735284;82;21509;-50
2022/06/17 03:37:12;;;;;;;14.55;9.93;;;;;;;10.13;87.90;94637.08;1735561;82;21025;-49
2022/06/17 03:39:43;;;;;;;20.08;12.45;;;;;;;10.25;87.68;94640.38;1714582;82;21793;-47
2022/06/17 03:42:31;;;;;;;28.17;13.58;;;;;;;10.34;87.78;94634.19;1734933;82;21068;-50
2022/06/17 03:45:13;;;;;;;29.20;15.55;;;;;;;10.47;87.90;94636.23;1735455;82;20975;-49
2022/06/17 03:47:57;;;;;;;16.30;11.83;;;;;;;10.64;87.54;94626.56;1735400;82;21026;-50
2022/06/17 03:50:33;;;;;;;18.98;10.75;;;;;;;10.85;87.14;94629.29;1735139;82;20958;-51
2022/06/17 03:53:08;;;;;;;19.80;11.22;;;;;;;11.04;86.77;94626.18;1735116;82;21108;-49
2022/06/17 03:55:36;;;;;;;21.82;11.97;;;;;;;11.28;86.31;94627.77;1707408;82;21021;-50
2022/06/17 03:58:05;;;;;;;21.33;13.15;;;;;;;11.47;85.89;94623.85;1735498;82;20998;-50
2022/06/17 04:00:45;;;;;;;19.32;10.32;;;;;;;11.60;85.48;94622.56;1692121;82;21442;-49
2022/06/17 04:03:17;;;;;;;14.25;9.38;;;;;;;11.79;85.05;94618.61;1734747;82;21057;-50
2022/06/17 04:05:46;;;;;;;12.07;8.80;;;;;;;11.98;84.47;94611.88;1735017;82;21170;-50
2022/06/17 04:08:15;;;;;;;30.37;9.38;;;;;;;12.19;83.65;94612.34;1735221;82;21041;-50
2022/06/17 04:10:45;;;;;;;10.75;8.00;;;;;;;12.31;82.65;94608.67;1735261;82;21025;-51
2022/06/17 04:13:17;;;;;;;9.45;7.53;;;;;;;12.40;81.90;94612.00;1714131;82;21528;-50
2022/06/17 04:16:05;;;;;;;16.40;8.33;;;;;;;12.47;81.75;94606.19;1733821;82;21072;-48
2022/06/17 04:18:34;;;;;;;7.90;6.25;;;;;;;12.59;81.67;94618.42;1734037;82;21107;-49
2022/06/17 04:21:04;;;;;;;11.65;6.17;;;;;;;12.74;81.35;94609.66;1734922;82;20997;-50
2022/06/17 04:23:34;;;;;;;12.78;7.55;;;;;;;12.83;80.77;94602.72;1735233;82;21497;-52
2022/06/17 04:26:21;;;;;;;11.05;7.33;;;;;;;12.91;80.49;94610.20;1735169;82;21006;-53
2022/06/17 04:28:58;;;;;;;12.13;6.80;;;;;;;12.97;80.19;94605.63;1716899;82;20985;-53
2022/06/17 04:31:29;;;;;;;13.38;6.42;;;;;;;13.02;79.86;94617.42;1735162;82;21237;-50
2022/06/17 04:34:14;;;;;;;14.15;5.83;;;;;;;13.04;79.73;94616.97;1734438;82;21041;-49
2022/06/17 04:36:52;;;;;;;22.48;7.30;;;;;;;13.05;79.51;94622.02;1734939;82;21057;-46
2022/06/17 04:39:28;;;;;;;12.93;6.83;;;;;;;13.03;79.37;94622.31;1735304;82;20954;-48
2022/06/17 04:42:08;;;;;;;9.80;6.50;;;;;;;13.01;79.52;94622.80;1663741;82;21481;-49
2022/06/17 04:44:40;;;;;;;9.30;6.47;;;;;;;13.03;79.46;94617.58;1735182;82;21075;-47
2022/06/17 04:47:18;;;;;;;13.80;7.10;;;;;;;13.04;79.46;94616.34;1734695;82;21034;-48
2022/06/17 04:49:59;;;;;;;16.95;6.83;;;;;;;13.07;79.48;94621.55;1734469;82;21037;-49
2022/06/17 04:52:36;;;;;;;13.08;7.05;;;;;;;13.15;79.41;94621.36;1734296;82;20991;-48
2022/06/17 04:55:36;;;;;;;8.63;6.67;;;;;;;13.18;79.04;94627.33;1734627;82;21489;-48
2022/06/17 04:58:11;;;;;;;10.63;7.47;;;;;;;13.15;78.83;94626.89;1706143;82;21235;-48
2022/06/17 05:00:44;;;;;;;11.73;7.25;;;;;;;13.15;78.78;94628.27;1714855;82;21275;-48
2022/06/17 05:03:12;;;;;;;13.65;8.10;;;;;;;13.13;78.80;94631.52;1735306;82;21081;-49
2022/06/17 05:05:45;;;;;;;;;;;;;;;13.17;78.81;94628.56;1736566;82;21010;-48
2022/06/17 05:08:20;;;;;;;10.70;6.70;;;;;;;13.21;78.63;94635.46;1734877;82;20441;-53
2022/06/17 05:10:54;;;;;;;11.20;6.25;;;;;;;13.24;78.29;94635.16;1735193;82;21882;-48
2022/06/17 05:13:39;;;;;;;17.00;7.30;;;;;;;13.30;78.14;94638.80;1735401;82;20990;-48
2022/06/17 05:16:15;;;;;;;39.58;12.55;;;;;;;13.36;78.11;94649.36;1734722;82;21093;-47
2022/06/17 05:18:44;;;;;;;39.73;15.75;;;;;;;13.40;78.13;94643.04;1756613;81;20994;-48
2022/06/17 05:21:24;;;;;;;25.62;11.80;;;;;;;13.41;77.85;94640.45;1712996;83;21063;-49
2022/06/17 05:24:09;;;;;;;23.73;10.18;;;;;;;13.45;77.86;94641.05;1718067;82;21493;-49
2022/06/17 05:26:38;;;;;;;25.37;11.33;;;;;;;13.50;78.12;94641.78;1714962;83;21016;-49
2022/06/17 05:29:08;;;;;;;29.80;13.80;;;;;;;13.53;77.88;94643.61;1690274;83;21553;-49
2022/06/17 05:31:39;;;;;;;28.65;11.97;;;;;;;13.53;77.88;94640.84;1737658;82;21022;-47
2022/06/17 05:34:09;;;;;;;29.60;9.48;;;;;;;13.56;77.98;94643.44;1740564;82;21015;-48
2022/06/17 05:36:37;;;;;;;23.52;9.73;;;;;;;13.63;77.77;94647.87;1720293;82;21296;-47
2022/06/17 05:39:05;;;;;;;25.72;10.20;;;;;;;13.68;77.84;94651.36;1732990;80;21573;-49
2022/06/17 05:41:33;;;;;;;40.17;14.75;;;;;;;13.77;77.68;94651.30;1706731;82;21035;-48
2022/06/17 05:44:01;;;;;;;38.00;14.25;;;;;;;13.83;77.37;94647.42;1721835;81;21038;-50
2022/06/17 05:46:31;;;;;;;16.75;10.50;;;;;;;13.87;76.93;94645.88;1756770;81;20958;-48
2022/06/17 05:49:01;;;;;;;18.30;9.50;;;;;;;13.92;76.02;94639.69;1748691;81;22132;-49
2022/06/17 05:51:39;;;;;;;19.00;11.68;;;;;;;13.98;75.46;94645.49;1730847;81;21007;-52
2022/06/17 05:54:23;;;;;;;22.58;10.55;;;;;;;14.08;75.29;94641.44;1531282;89;21195;-47
2022/06/17 05:56:53;;;;;;;19.48;10.72;;;;;;;14.16;75.25;94650.93;1643923;83;21078;-50
2022/06/17 05:59:22;;;;;;;14.55;9.95;;;;;;;14.25;74.84;94652.87;1684748;83;21457;-48
2022/06/17 06:01:50;;;;;;;21.55;11.50;;;;;;;14.31;74.37;94652.34;1713423;82;21923;-55
2022/06/17 06:04:20;;;;;;;18.57;9.38;;;;;;;14.38;74.13;94660.31;1740763;82;21097;-53
2022/06/17 06:06:48;;;;;;;28.55;14.30;;;;;;;14.45;73.45;94657.95;1715929;81;20994;-53
2022/06/17 06:09:15;;;;;;;23.45;10.25;;;;;;;14.49;73.35;94667.58;1706099;81;21052;-50
2022/06/17 06:11:43;;;;;;;26.17;11.75;;;;;;;14.60;73.44;94673.34;1722594;82;21066;-50
2022/06/17 06:14:12;;;;;;;29.87;13.88;;;;;;;14.65;73.20;94672.67;1717709;82;21129;-50
2022/06/17 06:16:40;;;;;;;29.18;12.43;;;;;;;14.69;73.33;94670.50;1706855;82;21065;-48
2022/06/17 06:19:07;;;;;;;29.63;12.47;;;;;;;14.76;73.14;94675.66;1709982;81;21201;-51
2022/06/17 06:21:35;;;;;;;24.77;12.10;;;;;;;14.81;72.89;94671.47;1706841;83;20987;-51
2022/06/17 06:24:04;;;;;;;30.68;12.53;;;;;;;14.87;72.54;94668.95;1706645;82;21084;-50
2022/06/17 06:26:35;;;;;;;19.12;10.78;;;;;;;14.89;72.63;94665.08;1709042;82;22437;-50
2022/06/17 06:29:07;;;;;;;23.83;11.05;;;;;;;14.95;73.33;94664.55;1737762;81;27059;-53
2022/06/17 06:31:37;;;;;;;20.23;10.82;;;;;;;14.97;73.20;94666.22;1709429;81;21115;-51
2022/06/17 06:34:10;;;;;;;28.77;11.43;;;;;;;14.99;73.47;94666.50;1700342;82;21067;-53
2022/06/17 06:36:42;;;;;;;16.42;10.58;;;;;;;15.01;73.71;94670.95;1707780;82;21110;-51
2022/06/17 06:39:11;;;;;;;18.37;10.40;;;;;;;15.09;73.50;94667.95;1713667;82;21469;-53
2022/06/17 06:41:40;;;;;;;18.67;10.78;;;;;;;15.14;73.15;94667.28;1733008;81;21070;-53
2022/06/17 06:44:09;;;;;;;18.77;11.20;;;;;;;15.22;72.69;94668.41;1726112;82;21019;-51
2022/06/17 06:46:41;;;;;;;20.55;11.97;;;;;;;15.25;72.70;94670.25;1677517;83;21105;-49
2022/06/17 06:49:11;;;;;;;23.00;10.75;;;;;;;15.28;72.74;94663.74;1700915;83;21055;-51
2022/06/17 06:51:40;;;;;;;23.12;11.10;;;;;;;15.29;73.15;94658.37;1730071;81;21161;-50
2022/06/17 06:54:08;;;;;;;19.10;10.48;;;;;;;15.34;73.33;94661.84;1698912;83;20939;-52
2022/06/17 06:56:37;;;;;;;29.57;12.25;;;;;;;15.40;73.08;94666.10;1740528;81;21080;-51
2022/06/17 06:59:06;;;;;;;25.68;12.20;;;;;;;15.40;72.80;94666.84;1736625;81;21050;-52
2022/06/17 07:01:35;;;;;;;21.20;12.60;;;;;;;15.39;73.06;94667.34;1724621;82;21122;-50
2022/06/17 07:04:04;;;;;;;23.75;13.18;;;;;;;15.37;73.45;94659.50;1686738;82;21302;-51
2022/06/17 07:06:33;;;;;;;25.43;11.73;;;;;;;15.35;73.60;94660.60;1700191;83;21101;-49
2022/06/17 07:09:01;;;;;;;19.70;11.30;;;;;;;15.37;73.84;94658.11;1743968;81;21554;-50
2022/06/17 07:11:30;;;;;;;17.85;10.88;;;;;;;15.40;74.35;94665.47;1743026;81;21872;-49
2022/06/17 07:13:58;;;;;;;17.35;10.58;;;;;;;15.43;75.24;94655.44;1721693;80;21559;-52
2022/06/17 07:16:28;;;;;;;21.82;10.32;;;;;;;15.43;75.71;94656.82;1715650;82;20975;-51
2022/06/17 07:18:56;;;;;;;14.18;10.45;;;;;;;15.44;75.92;94650.03;1728447;81;21025;-49
2022/06/17 07:21:24;;;;;;;19.52;11.22;;;;;;;15.42;76.05;94640.83;1710824;82;22191;-54
2022/06/17 07:23:52;;;;;;;14.35;8.98;;;;;;;15.34;76.57;94650.76;1709788;82;21033;-49
2022/06/17 07:26:22;;;;;;;15.55;9.15;;;;;;;15.33;77.33;94656.16;1685208;83;20908;-49
2022/06/17 07:28:52;;;;;;;16.48;9.75;;;;;;;15.34;77.86;94652.78;1702998;82;21305;-52
2022/06/17 07:31:22;;;;;;;16.25;10.32;;;;;;;15.36;78.83;94651.04;1712860;82;21187;-50
2022/06/17 07:33:50;;;;;;;18.85;11.15;;;;;;;15.36;79.51;94657.97;1657677;85;22270;-51
2022/06/17 07:42:00;;;;;;;22.17;13.40;;;;;;;15.71;80.65;94665.70;1696052;82;21259;-51
2022/06/17 07:44:27;;;;;;;21.00;12.65;;;;;;;15.85;81.03;94663.52;1702808;83;21082;-49
2022/06/17 07:46:55;;;;;;;20.95;12.35;;;;;;;15.98;80.30;94670.12;1702523;82;21087;-51
2022/06/17 07:49:22;;;;;;;13.03;7.65;;;;;;;16.14;80.14;94668.98;1685991;83;22127;-53
2022/06/17 07:51:50;;;;;;;11.85;8.45;;;;;;;16.29;79.55;94671.05;1705992;82;21042;-49
2022/06/17 07:54:17;;;;;;;14.10;8.50;;;;;;;16.36;78.88;94674.86;1700848;83;21115;-49
2022/06/17 07:56:45;;;;;;;14.90;8.30;;;;;;;16.35;78.41;94673.33;1695582;83;21672;-53
2022/06/17 07:59:13;;;;;;;13.35;10.08;;;;;;;16.31;78.63;94675.50;1695033;84;21005;-49
2022/06/17 08:01:40;;;;;;;15.20;10.13;;;;;;;16.28;78.70;94678.64;1658005;83;21595;-50
2022/06/17 08:04:08;;;;;;;11.43;9.18;;;;;;;16.25;78.56;94677.45;1696931;83;21081;-52
2022/06/17 08:06:36;;;;;;;14.18;10.63;;;;;;;16.19;78.90;94672.45;1685024;83;22401;-51
2022/06/17 08:09:05;;;;;;;18.98;11.40;;;;;;;16.15;78.59;94676.06;1663297;84;21060;-52
2022/06/17 08:11:34;;;;;;;17.77;10.80;;;;;;;16.16;78.89;94672.65;1709883;83;21141;-48
2022/06/17 08:14:01;;;;;;;20.48;12.60;;;;;;;16.22;78.54;94679.03;1709966;83;21039;-51
2022/06/17 08:16:30;;;;;;;18.77;12.07;;;;;;;16.25;78.36;94675.31;1704546;83;22060;-50
2022/06/17 08:18:58;;;;;;;21.40;12.93;;;;;;;16.29;78.32;94681.55;1703979;82;21190;-53
2022/06/17 08:21:26;;;;;;;25.45;14.33;;;;;;;16.34;77.99;94681.48;1707292;82;21014;-50
2022/06/17 08:23:53;;;;;;;24.80;14.00;;;;;;;16.38;77.95;94687.63;1717807;81;21038;-51
2022/06/17 08:26:21;;;;;;;25.05;13.78;;;;;;;16.44;77.70;94691.22;1749314;81;21038;-51
2022/06/17 08:28:51;;;;;;;19.12;12.47;;;;;;;16.45;77.35;94695.53;1739579;81;21068;-51
2022/06/17 08:31:20;;;;;;;25.17;13.32;;;;;;;16.47;77.40;94704.91;1715571;81;21093;-52
2022/06/17 08:33:49;;;;;;;18.80;12.43;;;;;;;16.56;76.92;94695.67;1709279;82;22273;-50
2022/06/17 08:36:19;;;;;;;17.05;11.08;;;;;;;16.59;76.34;94684.98;1701915;83;21303;-53
2022/06/17 08:39:00;;;;;;;21.85;11.53;;;;;;;16.61;76.44;94687.42;1705069;82;21073;-50
2022/06/17 08:41:35;;;;;;;15.32;11.05;;;;;;;16.68;76.42;94685.59;1721315;81;20975;-49
2022/06/17 08:44:21;;;;;;;13.80;10.15;;;;;;;16.83;76.29;94682.11;1711717;83;22723;-50
2022/06/17 08:46:59;;;;;;;18.70;10.93;;;;;;;17.00;75.71;94690.00;1718311;83;20982;-50
2022/06/17 08:50:02;;;;;;;21.85;12.07;;;;;;;17.17;74.98;94692.94;1737171;82;21548;-50
2022/06/17 08:53:04;;;;;;;15.23;10.38;;;;;;;17.29;74.53;94693.19;1700950;81;21101;-48
2022/06/17 08:55:43;;;;;;;14.38;9.45;;;;;;;17.49;73.95;94693.15;1719525;82;21048;-50
2022/06/17 08:58:36;;;;;;;12.43;9.23;;;;;;;17.56;73.37;94685.12;1736498;82;21115;-50
2022/06/17 09:01:26;;;;;;;13.70;9.55;;;;;;;17.71;72.49;94688.54;1743589;80;21022;-51
2022/06/17 09:04:07;;;;;;;13.98;7.22;;;;;;;17.83;71.31;94685.20;1716215;82;21049;-50
2022/06/17 09:06:52;;;;;;;12.07;6.35;;;;;;;17.99;70.45;94694.31;1729566;81;21020;-48
2022/06/17 09:09:44;;;;;;;13.58;9.50;;;;;;;18.10;70.04;94688.80;1701704;83;21030;-49
2022/06/17 09:12:25;;;;;;;8.98;6.90;;;;;;;18.27;70.48;94690.47;1714451;82;21237;-50
2022/06/17 09:15:16;;;;;;;9.95;7.65;;;;;;;18.48;70.67;94690.45;1702677;81;21558;-49
2022/06/17 09:18:11;;;;;;;8.35;5.85;;;;;;;18.61;70.29;94697.73;1704795;83;21232;-54
2022/06/17 09:20:42;;;;;;;7.92;6.30;;;;;;;18.71;69.49;94698.41;1718680;82;20995;-49
2022/06/17 09:23:13;;;;;;;11.85;7.33;;;;;;;18.79;68.99;94692.47;1684262;84;21027;-49
2022/06/17 09:25:44;;;;;;;11.93;7.53;;;;;;;18.86;69.18;94689.20;1710118;83;21230;-51
2022/06/17 09:28:24;;;;;;;9.15;6.12;;;;;;;19.01;70.37;94688.36;1676658;84;21069;-50
2022/06/17 09:31:01;;;;;;;11.78;6.45;;;;;;;19.17;70.08;94688.32;1705683;82;21577;-50
2022/06/17 09:33:46;;;;;;;12.90;9.55;;;;;;;19.34;69.33;94684.28;1700541;82;21120;-51
2022/06/17 09:36:25;;;;;;;41.92;9.65;;;;;;;19.51;68.90;94686.46;1737504;82;21053;-51
2022/06/17 09:39:12;;;;;;;10.50;6.12;;;;;;;19.81;68.12;94690.91;1717624;82;21911;-48
2022/06/17 09:41:59;;;;;;;9.90;5.10;;;;;;;20.08;68.33;94689.52;1709221;83;21007;-52
2022/06/17 09:44:31;;;;;;;16.50;5.92;;;;;;;20.28;67.83;94694.20;1709084;81;21059;-51
2022/06/17 09:47:20;;;;;;;12.63;4.83;;;;;;;20.48;66.06;94684.73;1668615;84;22055;-49
2022/06/17 09:49:53;;;;;;;12.80;4.97;;;;;;;20.66;64.42;94686.97;1704777;82;21015;-50
2022/06/17 09:52:26;;;;;;;6.25;4.90;;;;;;;20.91;65.23;94685.25;1703116;82;21503;-52
2022/06/17 09:55:20;;;;;;;6.55;4.53;;;;;;;21.14;64.20;94680.31;1700481;82;21035;-50
2022/06/17 09:58:07;;;;;;;4.60;3.60;;;;;;;21.21;62.01;94676.95;1692543;82;21054;-51
2022/06/17 10:00:45;;;;;;;6.47;3.67;;;;;;;21.33;58.82;94682.61;1711766;83;21026;-51
2022/06/17 10:03:23;;;;;;;5.42;3.30;;;;;;;21.44;59.84;94676.30;1706247;82;21106;-49
2022/06/17 10:06:14;;;;;;;6.72;3.77;;;;;;;21.71;60.93;94683.80;1696272;82;22524;-56
2022/06/17 10:09:05;;;;;;;3.98;3.50;;;;;;;21.91;60.39;94684.00;1695882;82;21121;-51
2022/06/17 10:12:19;;;;;;;6.08;4.45;;;;;;;21.90;59.54;94686.06;1705627;83;21002;-52
2022/06/17 10:15:08;;;;;;;4.87;3.40;;;;;;;21.77;59.04;94690.10;1673667;84;21054;-49
2022/06/17 10:18:33;;;;;;;7.00;3.55;;;;;;;21.47;58.66;94687.86;1702484;84;21042;-50
2022/06/17 10:21:29;;;;;;;6.20;4.08;;;;;;;21.17;60.19;94700.26;1699380;82;21270;-51
2022/06/17 10:24:24;;;;;;;8.10;5.35;;;;;;;20.64;64.12;94704.90;1732898;81;21063;-49
2022/06/17 10:27:18;;;;;;;8.83;7.05;;;;;;;20.24;66.41;94694.33;1671846;84;21112;-52
2022/06/17 10:30:08;;;;;;;4.85;4.35;;;;;;;19.92;69.03;94701.44;1672252;85;22307;-52
2022/06/17 10:32:39;;;;;;;5.85;4.70;;;;;;;19.69;70.83;94697.75;1700667;83;21058;-50
2022/06/17 10:35:28;;;;;;;8.88;4.87;;;;;;;19.56;72.84;94701.05;1705964;82;21140;-52
2022/06/17 10:37:58;;;;;;;7.10;5.60;;;;;;;19.51;73.65;94709.41;1735860;81;21428;-48
2022/06/17 10:40:28;;;;;;;16.62;11.80;;;;;;;19.42;74.33;94707.65;1735614;81;21043;-51
2022/06/17 10:42:59;;;;;;;7.08;5.75;;;;;;;19.47;74.50;94718.05;1740621;80;21038;-50
2022/06/17 10:45:27;;;;;;;25.80;13.08;;;;;;;19.75;75.40;94725.80;1746997;81;21035;-49
2022/06/17 10:48:09;;;;;;;35.38;17.42;;;;;;;20.09;73.56;94725.97;1746399;81;21141;-51
2022/06/17 10:50:38;;;;;;;37.35;18.87;;;;;;;20.33;71.34;94724.16;1715620;82;21014;-52
2022/06/17 10:53:19;;;;;;;26.00;16.05;;;;;;;20.41;71.09;94731.39;1745718;81;21038;-49
2022/06/17 10:55:48;;;;;;;14.15;8.58;;;;;;;20.36;70.17;94741.30;1744559;81;21610;-52
2022/06/17 10:58:26;;;;;;;7.42;3.52;;;;;;;20.25;69.81;94739.94;1660572;85;21070;-49
2022/06/17 11:01:07;;;;;;;17.37;5.45;;;;;;;20.03;68.47;94745.39;1682074;84;21150;-49
2022/06/17 11:03:42;;;;;;;17.00;8.08;;;;;;;19.53;70.81;94743.93;1713063;82;21640;-48
2022/06/17 11:06:21;;;;;;;16.30;7.05;;;;;;;19.09;73.53;94760.53;1661965;84;21495;-48
2022/06/17 11:08:59;;;;;;;8.10;5.45;;;;;;;18.84;75.74;94755.84;1676258;84;21828;-50
2022/06/17 11:14:36;;;;;;;8.35;4.80;;;;;;;18.66;76.05;94754.12;1701511;83;21340;-51
2022/06/17 11:17:12;;;;;;;4.50;3.60;;;;;;;18.54;74.35;94762.28;1679337;83;21044;-48
2022/06/17 11:19:42;;;;;;;3.45;3.05;;;;;;;18.43;75.19;94757.41;1660330;84;21104;-49
2022/06/17 11:22:23;;;;;;;3.58;3.00;;;;;;;18.36;75.03;94757.87;1684359;84;21019;-49
2022/06/17 11:24:55;;;;;;;4.83;2.85;;;;;;;18.34;74.79;94757.62;1678193;83;21682;-51
2022/06/17 11:27:43;;;;;;;23.90;4.58;;;;;;;18.51;75.41;94764.05;1705383;82;21793;-52
2022/06/17 11:30:28;;;;;;;11.55;5.85;;;;;;;18.72;75.28;94764.05;1678400;83;21058;-51
2022/06/17 11:32:56;;;;;;;12.78;4.90;;;;;;;18.90;74.55;94769.81;1661702;84;21102;-48
2022/06/17 11:35:38;;;;;;;5.97;3.15;;;;;;;19.05;74.79;94771.78;1682048;83;21566;-49
2022/06/17 11:38:12;;;;;;;3.05;2.75;;;;;;;19.16;73.24;94771.84;1676556;84;21494;-50
2022/06/17 11:41:00;;;;;;;5.47;3.27;;;;;;;19.23;70.77;94782.53;1666472;83;21442;-52
2022/06/17 11:43:26;;;;;;;;;;;;;;;19.21;70.55;94771.87;1705578;82;21031;-49
2022/06/17 11:45:54;;;;;;;4.03;2.83;;;;;;;19.20;71.20;94776.57;1712209;82;20217;-49
2022/06/17 11:48:22;;;;;;;3.52;3.15;;;;;;;19.23;72.11;94776.30;1712866;82;20990;-51
2022/06/17 11:51:11;;;;;;;5.60;3.35;;;;;;;19.33;72.77;94777.63;1703603;83;21131;-51
2022/06/17 11:53:48;;;;;;;3.60;3.30;;;;;;;19.38;73.25;94786.63;1646643;83;21174;-50
2022/06/17 11:56:40;;;;;;;5.45;2.98;;;;;;;19.50;73.48;94784.02;1676910;84;21056;-50
2022/06/17 11:59:17;;;;;;;3.25;2.95;;;;;;;19.57;73.28;94787.70;1673708;84;21062;-51
2022/06/17 12:02:06;;;;;;;3.90;3.40;;;;;;;19.49;72.75;94794.27;1653192;84;21133;-51
2022/06/17 12:04:57;;;;;;;4.33;3.30;;;;;;;19.42;72.25;94794.16;1699016;82;21113;-54
2022/06/17 12:07:38;;;;;;;3.52;3.22;;;;;;;19.27;72.30;94786.62;1681073;84;21221;-50
2022/06/17 12:10:54;;;;;;;3.52;3.20;;;;;;;19.62;73.26;94775.80;1688072;82;21501;-52